sensor_id;sensor_type;location;lat;lon;timestamp;P1;durP1;ratioP1;P2;durP2;ratioP2
64498;SDS011;51087;55.718;21.122;2023-06-22T00:02:17;44.13;;;31.88;;
64498;SDS011;51087;55.718;21.122;2023-06-22T00:04:42;45.08;;;31.77;;
64498;SDS011;51087;55.718;21.122;2023-06-22T00:07:08;50.42;;;32.40;;
64498;SDS011;51087;55.718;21.122;2023-06-22T00:09:34;42.65;;;30.67;;
64498;SDS011;51087;55.718;21.122;2023-06-22T00:11:59;48.05;;;33.05;;
64498;SDS011;51087;55.718;21.122;2023-06-22T00:14:25;48.70;;;33.30;;
64498;SDS011;51087;55.718;21.122;2023-06-22T00:16:50;44.58;;;32.22;;
64498;SDS011;51087;55.718;21.122;2023-06-22T00:19:20;48.67;;;33.35;;
64498;SDS011;51087;55.718;21.122;2023-06-22T00:21:47;55.80;;;35.10;;
64498;SDS011;51087;55.718;21.122;2023-06-22T00:24:13;50.45;;;33.10;;
64498;SDS011;51087;55.718;21.122;2023-06-22T00:26:38;54.00;;;34.63;;
64498;SDS011;51087;55.718;21.122;2023-06-22T00:29:04;54.33;;;33.42;;
64498;SDS011;51087;55.718;21.122;2023-06-22T00:31:29;49.97;;;33.45;;
64498;SDS011;51087;55.718;21.122;2023-06-22T00:33:54;54.15;;;33.88;;
64498;SDS011;51087;55.718;21.122;2023-06-22T00:36:20;54.42;;;34.55;;
64498;SDS011;51087;55.718;21.122;2023-06-22T00:38:45;51.50;;;35.08;;
64498;SDS011;51087;55.718;21.122;2023-06-22T00:41:11;54.75;;;33.45;;
64498;SDS011;51087;55.718;21.122;2023-06-22T00:43:36;55.55;;;35.00;;
64498;SDS011;51087;55.718;21.122;2023-06-22T00:46:02;54.45;;;35.22;;
64498;SDS011;51087;55.718;21.122;2023-06-22T00:48:27;48.30;;;33.78;;
64498;SDS011;51087;55.718;21.122;2023-06-22T00:50:53;48.88;;;33.63;;
64498;SDS011;51087;55.718;21.122;2023-06-22T00:53:20;54.38;;;33.60;;
64498;SDS011;51087;55.718;21.122;2023-06-22T00:55:46;49.78;;;32.72;;
64498;SDS011;51087;55.718;21.122;2023-06-22T00:58:13;50.13;;;31.70;;
64498;SDS011;51087;55.718;21.122;2023-06-22T01:00:39;53.65;;;33.92;;
64498;SDS011;51087;55.718;21.122;2023-06-22T01:03:06;50.92;;;32.58;;
64498;SDS011;51087;55.718;21.122;2023-06-22T01:05:36;51.08;;;33.63;;
64498;SDS011;51087;55.718;21.122;2023-06-22T01:16:35;55.97;;;34.55;;
64498;SDS011;51087;55.718;21.122;2023-06-22T01:18:57;49.05;;;33.85;;
64498;SDS011;51087;55.718;21.122;2023-06-22T01:21:28;51.65;;;34.17;;
64498;SDS011;51087;55.718;21.122;2023-06-22T01:29:08;42.90;;;30.50;;
64498;SDS011;51087;55.718;21.122;2023-06-22T01:31:39;48.00;;;32.33;;
64498;SDS011;51087;55.718;21.122;2023-06-22T01:34:07;47.47;;;31.65;;
64498;SDS011;51087;55.718;21.122;2023-06-22T01:36:33;45.10;;;32.03;;
64498;SDS011;51087;55.718;21.122;2023-06-22T01:39:00;45.17;;;31.83;;
64498;SDS011;51087;55.718;21.122;2023-06-22T01:41:28;44.72;;;31.20;;
64498;SDS011;51087;55.718;21.122;2023-06-22T01:43:56;50.30;;;31.48;;
64498;SDS011;51087;55.718;21.122;2023-06-22T01:46:22;44.38;;;29.92;;
64498;SDS011;51087;55.718;21.122;2023-06-22T01:48:48;48.22;;;29.30;;
64498;SDS011;51087;55.718;21.122;2023-06-22T01:51:15;47.92;;;30.00;;
64498;SDS011;51087;55.718;21.122;2023-06-22T01:53:40;45.55;;;29.70;;
64498;SDS011;51087;55.718;21.122;2023-06-22T01:56:06;45.72;;;28.23;;
64498;SDS011;51087;55.718;21.122;2023-06-22T01:58:31;47.80;;;29.52;;
64498;SDS011;51087;55.718;21.122;2023-06-22T02:01:06;46.95;;;28.80;;
64498;SDS011;51087;55.718;21.122;2023-06-22T02:03:35;42.78;;;28.42;;
64498;SDS011;51087;55.718;21.122;2023-06-22T02:06:06;42.10;;;27.67;;
64498;SDS011;51087;55.718;21.122;2023-06-22T02:08:42;42.97;;;27.20;;
64498;SDS011;51087;55.718;21.122;2023-06-22T02:11:13;43.58;;;27.92;;
64498;SDS011;51087;55.718;21.122;2023-06-22T02:13:41;45.95;;;27.00;;
64498;SDS011;51087;55.718;21.122;2023-06-22T02:16:09;46.75;;;27.80;;
64498;SDS011;51087;55.718;21.122;2023-06-22T02:18:36;42.47;;;27.35;;
64498;SDS011;51087;55.718;21.122;2023-06-22T02:21:02;40.58;;;26.70;;
64498;SDS011;51087;55.718;21.122;2023-06-22T02:23:28;44.90;;;27.50;;
64498;SDS011;51087;55.718;21.122;2023-06-22T02:25:53;43.20;;;27.40;;
64498;SDS011;51087;55.718;21.122;2023-06-22T02:28:19;42.47;;;23.25;;
64498;SDS011;51087;55.718;21.122;2023-06-22T02:30:44;45.50;;;27.23;;
64498;SDS011;51087;55.718;21.122;2023-06-22T02:33:09;45.67;;;24.85;;
64498;SDS011;51087;55.718;21.122;2023-06-22T02:35:35;44.42;;;26.10;;
64498;SDS011;51087;55.718;21.122;2023-06-22T02:38:01;46.35;;;26.45;;
64498;SDS011;51087;55.718;21.122;2023-06-22T02:40:29;39.60;;;25.75;;
64498;SDS011;51087;55.718;21.122;2023-06-22T02:42:54;45.15;;;27.20;;
64498;SDS011;51087;55.718;21.122;2023-06-22T02:45:20;46.00;;;26.30;;
64498;SDS011;51087;55.718;21.122;2023-06-22T02:47:45;46.40;;;27.73;;
64498;SDS011;51087;55.718;21.122;2023-06-22T02:50:12;43.15;;;26.25;;
64498;SDS011;51087;55.718;21.122;2023-06-22T02:52:38;48.53;;;27.38;;
64498;SDS011;51087;55.718;21.122;2023-06-22T02:55:04;39.78;;;26.17;;
64498;SDS011;51087;55.718;21.122;2023-06-22T02:57:32;46.85;;;26.35;;
64498;SDS011;51087;55.718;21.122;2023-06-22T02:59:57;42.30;;;25.00;;
64498;SDS011;51087;55.718;21.122;2023-06-22T03:02:23;31.02;;;18.20;;
64498;SDS011;51087;55.718;21.122;2023-06-22T03:04:48;48.30;;;27.30;;
64498;SDS011;51087;55.718;21.122;2023-06-22T03:07:14;43.38;;;24.65;;
64498;SDS011;51087;55.718;21.122;2023-06-22T03:09:40;43.97;;;25.30;;
64498;SDS011;51087;55.718;21.122;2023-06-22T03:12:07;42.97;;;26.08;;
64498;SDS011;51087;55.718;21.122;2023-06-22T03:14:33;42.15;;;23.77;;
64498;SDS011;51087;55.718;21.122;2023-06-22T03:16:58;46.25;;;26.08;;
64498;SDS011;51087;55.718;21.122;2023-06-22T03:19:28;45.63;;;25.30;;
64498;SDS011;51087;55.718;21.122;2023-06-22T03:21:54;38.63;;;22.60;;
64498;SDS011;51087;55.718;21.122;2023-06-22T03:24:20;41.30;;;25.05;;
64498;SDS011;51087;55.718;21.122;2023-06-22T03:26:45;46.80;;;25.58;;
64498;SDS011;51087;55.718;21.122;2023-06-22T03:29:12;42.90;;;24.20;;
64498;SDS011;51087;55.718;21.122;2023-06-22T03:31:37;44.10;;;26.15;;
64498;SDS011;51087;55.718;21.122;2023-06-22T03:34:02;45.13;;;25.50;;
64498;SDS011;51087;55.718;21.122;2023-06-22T03:36:28;40.38;;;22.55;;
64498;SDS011;51087;55.718;21.122;2023-06-22T03:38:53;41.97;;;24.70;;
64498;SDS011;51087;55.718;21.122;2023-06-22T03:41:19;38.35;;;23.38;;
64498;SDS011;51087;55.718;21.122;2023-06-22T03:43:44;37.15;;;20.35;;
64498;SDS011;51087;55.718;21.122;2023-06-22T03:46:09;40.05;;;22.15;;
64498;SDS011;51087;55.718;21.122;2023-06-22T03:48:35;41.35;;;21.40;;
64498;SDS011;51087;55.718;21.122;2023-06-22T03:51:01;40.97;;;22.25;;
64498;SDS011;51087;55.718;21.122;2023-06-22T03:53:26;41.38;;;23.52;;
64498;SDS011;51087;55.718;21.122;2023-06-22T03:55:52;36.05;;;20.25;;
64498;SDS011;51087;55.718;21.122;2023-06-22T03:58:18;31.60;;;16.85;;
64498;SDS011;51087;55.718;21.122;2023-06-22T04:00:48;40.75;;;23.45;;
64498;SDS011;51087;55.718;21.122;2023-06-22T04:03:17;42.28;;;23.08;;
64498;SDS011;51087;55.718;21.122;2023-06-22T04:05:44;35.78;;;22.15;;
64498;SDS011;51087;55.718;21.122;2023-06-22T04:08:09;25.58;;;15.25;;
64498;SDS011;51087;55.718;21.122;2023-06-22T04:10:35;43.70;;;22.20;;
64498;SDS011;51087;55.718;21.122;2023-06-22T04:13:00;44.47;;;25.75;;
64498;SDS011;51087;55.718;21.122;2023-06-22T04:15:26;44.63;;;23.58;;
64498;SDS011;51087;55.718;21.122;2023-06-22T04:17:51;42.38;;;23.98;;
64498;SDS011;51087;55.718;21.122;2023-06-22T04:20:17;40.03;;;22.60;;
64498;SDS011;51087;55.718;21.122;2023-06-22T04:22:42;43.63;;;23.10;;
64498;SDS011;51087;55.718;21.122;2023-06-22T04:25:07;42.30;;;22.70;;
64498;SDS011;51087;55.718;21.122;2023-06-22T04:27:33;36.97;;;20.98;;
64498;SDS011;51087;55.718;21.122;2023-06-22T04:30:05;39.53;;;20.92;;
64498;SDS011;51087;55.718;21.122;2023-06-22T04:32:32;32.80;;;19.48;;
64498;SDS011;51087;55.718;21.122;2023-06-22T04:34:57;31.88;;;19.65;;
64498;SDS011;51087;55.718;21.122;2023-06-22T04:37:23;33.92;;;19.58;;
64498;SDS011;51087;55.718;21.122;2023-06-22T04:39:49;30.83;;;18.00;;
64498;SDS011;51087;55.718;21.122;2023-06-22T04:42:15;33.20;;;17.95;;
64498;SDS011;51087;55.718;21.122;2023-06-22T04:44:40;32.72;;;17.00;;
64498;SDS011;51087;55.718;21.122;2023-06-22T04:47:07;30.10;;;15.57;;
64498;SDS011;51087;55.718;21.122;2023-06-22T04:49:33;32.15;;;18.65;;
64498;SDS011;51087;55.718;21.122;2023-06-22T04:52:04;31.52;;;16.58;;
64498;SDS011;51087;55.718;21.122;2023-06-22T04:54:31;33.22;;;17.80;;
64498;SDS011;51087;55.718;21.122;2023-06-22T04:57:03;34.00;;;17.17;;
64498;SDS011;51087;55.718;21.122;2023-06-22T04:59:35;27.48;;;17.58;;
64498;SDS011;51087;55.718;21.122;2023-06-22T05:02:01;27.95;;;15.73;;
64498;SDS011;51087;55.718;21.122;2023-06-22T05:04:28;30.85;;;16.27;;
64498;SDS011;51087;55.718;21.122;2023-06-22T05:06:56;30.30;;;16.73;;
64498;SDS011;51087;55.718;21.122;2023-06-22T05:09:22;14.25;;;9.90;;
64498;SDS011;51087;55.718;21.122;2023-06-22T05:11:50;31.58;;;17.70;;
64498;SDS011;51087;55.718;21.122;2023-06-22T05:14:15;31.45;;;18.02;;
64498;SDS011;51087;55.718;21.122;2023-06-22T05:16:41;13.80;;;9.30;;
64498;SDS011;51087;55.718;21.122;2023-06-22T05:19:08;29.23;;;17.60;;
64498;SDS011;51087;55.718;21.122;2023-06-22T05:21:33;33.30;;;18.30;;
64498;SDS011;51087;55.718;21.122;2023-06-22T05:23:59;32.40;;;17.67;;
64498;SDS011;51087;55.718;21.122;2023-06-22T05:26:27;25.02;;;16.60;;
64498;SDS011;51087;55.718;21.122;2023-06-22T05:28:56;28.60;;;17.38;;
64498;SDS011;51087;55.718;21.122;2023-06-22T05:31:22;28.00;;;16.17;;
64498;SDS011;51087;55.718;21.122;2023-06-22T05:33:49;23.48;;;15.27;;
64498;SDS011;51087;55.718;21.122;2023-06-22T05:36:16;23.13;;;16.02;;
64498;SDS011;51087;55.718;21.122;2023-06-22T05:38:45;22.98;;;15.57;;
64498;SDS011;51087;55.718;21.122;2023-06-22T05:41:10;23.50;;;14.65;;
64498;SDS011;51087;55.718;21.122;2023-06-22T05:43:36;23.45;;;15.38;;
64498;SDS011;51087;55.718;21.122;2023-06-22T05:46:01;26.73;;;13.90;;
64498;SDS011;51087;55.718;21.122;2023-06-22T05:48:27;25.23;;;14.13;;
64498;SDS011;51087;55.718;21.122;2023-06-22T05:50:53;18.70;;;13.27;;
64498;SDS011;51087;55.718;21.122;2023-06-22T05:53:19;22.02;;;13.30;;
64498;SDS011;51087;55.718;21.122;2023-06-22T05:55:44;19.67;;;13.35;;
64498;SDS011;51087;55.718;21.122;2023-06-22T05:58:11;23.88;;;13.88;;
64498;SDS011;51087;55.718;21.122;2023-06-22T06:00:36;17.13;;;11.02;;
64498;SDS011;51087;55.718;21.122;2023-06-22T06:03:02;17.38;;;11.60;;
64498;SDS011;51087;55.718;21.122;2023-06-22T06:05:32;19.67;;;11.85;;
64498;SDS011;51087;55.718;21.122;2023-06-22T06:07:59;15.88;;;12.05;;
64498;SDS011;51087;55.718;21.122;2023-06-22T06:10:29;23.85;;;10.68;;
64498;SDS011;51087;55.718;21.122;2023-06-22T06:12:55;17.20;;;10.57;;
64498;SDS011;51087;55.718;21.122;2023-06-22T06:15:21;16.60;;;10.82;;
64498;SDS011;51087;55.718;21.122;2023-06-22T06:17:50;15.45;;;9.85;;
64498;SDS011;51087;55.718;21.122;2023-06-22T06:20:21;18.15;;;9.40;;
64498;SDS011;51087;55.718;21.122;2023-06-22T06:22:48;20.65;;;12.43;;
64498;SDS011;51087;55.718;21.122;2023-06-22T06:25:14;18.85;;;10.48;;
64498;SDS011;51087;55.718;21.122;2023-06-22T06:27:46;19.45;;;12.20;;
64498;SDS011;51087;55.718;21.122;2023-06-22T06:30:13;24.17;;;12.45;;
64498;SDS011;51087;55.718;21.122;2023-06-22T06:32:40;17.30;;;9.65;;
64498;SDS011;51087;55.718;21.122;2023-06-22T06:35:07;20.90;;;11.88;;
64498;SDS011;51087;55.718;21.122;2023-06-22T06:37:36;18.95;;;11.15;;
64498;SDS011;51087;55.718;21.122;2023-06-22T06:40:03;17.60;;;11.52;;
64498;SDS011;51087;55.718;21.122;2023-06-22T06:42:39;15.07;;;9.80;;
64498;SDS011;51087;55.718;21.122;2023-06-22T06:45:09;20.25;;;10.10;;
64498;SDS011;51087;55.718;21.122;2023-06-22T06:47:47;20.08;;;10.35;;
64498;SDS011;51087;55.718;21.122;2023-06-22T06:50:13;16.63;;;10.48;;
64498;SDS011;51087;55.718;21.122;2023-06-22T06:52:38;17.67;;;9.57;;
64498;SDS011;51087;55.718;21.122;2023-06-22T06:55:04;18.42;;;11.25;;
64498;SDS011;51087;55.718;21.122;2023-06-22T06:57:34;24.17;;;10.85;;
64498;SDS011;51087;55.718;21.122;2023-06-22T06:59:59;22.15;;;11.13;;
64498;SDS011;51087;55.718;21.122;2023-06-22T07:02:25;19.30;;;11.15;;
64498;SDS011;51087;55.718;21.122;2023-06-22T07:04:53;18.77;;;9.80;;
64498;SDS011;51087;55.718;21.122;2023-06-22T07:07:20;23.27;;;10.25;;
64498;SDS011;51087;55.718;21.122;2023-06-22T07:09:46;13.85;;;8.65;;
64498;SDS011;51087;55.718;21.122;2023-06-22T07:12:11;17.17;;;9.95;;
64498;SDS011;51087;55.718;21.122;2023-06-22T07:14:37;17.92;;;10.10;;
64498;SDS011;51087;55.718;21.122;2023-06-22T07:17:02;16.55;;;9.30;;
64498;SDS011;51087;55.718;21.122;2023-06-22T07:19:28;19.17;;;9.27;;
64498;SDS011;51087;55.718;21.122;2023-06-22T07:21:54;19.15;;;8.60;;
64498;SDS011;51087;55.718;21.122;2023-06-22T07:24:20;16.02;;;9.02;;
64498;SDS011;51087;55.718;21.122;2023-06-22T07:26:49;16.30;;;8.07;;
64498;SDS011;51087;55.718;21.122;2023-06-22T07:29:16;12.77;;;8.30;;
64498;SDS011;51087;55.718;21.122;2023-06-22T07:31:42;14.73;;;8.32;;
64498;SDS011;51087;55.718;21.122;2023-06-22T07:34:07;11.68;;;7.50;;
64498;SDS011;51087;55.718;21.122;2023-06-22T07:36:33;16.80;;;8.25;;
64498;SDS011;51087;55.718;21.122;2023-06-22T07:39:00;12.20;;;7.55;;
64498;SDS011;51087;55.718;21.122;2023-06-22T07:41:27;15.00;;;7.05;;
64498;SDS011;51087;55.718;21.122;2023-06-22T07:43:52;14.65;;;7.85;;
64498;SDS011;51087;55.718;21.122;2023-06-22T07:46:18;17.98;;;8.32;;
64498;SDS011;51087;55.718;21.122;2023-06-22T07:48:43;12.38;;;7.57;;
64498;SDS011;51087;55.718;21.122;2023-06-22T07:51:09;11.40;;;7.63;;
64498;SDS011;51087;55.718;21.122;2023-06-22T07:53:34;12.30;;;7.32;;
64498;SDS011;51087;55.718;21.122;2023-06-22T07:56:01;12.13;;;8.30;;
64498;SDS011;51087;55.718;21.122;2023-06-22T07:58:31;14.25;;;7.65;;
64498;SDS011;51087;55.718;21.122;2023-06-22T08:00:57;14.18;;;7.15;;
64498;SDS011;51087;55.718;21.122;2023-06-22T08:03:22;16.60;;;7.43;;
64498;SDS011;51087;55.718;21.122;2023-06-22T08:05:48;14.02;;;7.43;;
64498;SDS011;51087;55.718;21.122;2023-06-22T08:08:14;15.60;;;7.00;;
64498;SDS011;51087;55.718;21.122;2023-06-22T08:10:39;14.77;;;7.95;;
64498;SDS011;51087;55.718;21.122;2023-06-22T08:13:06;14.52;;;6.95;;
64498;SDS011;51087;55.718;21.122;2023-06-22T08:15:31;17.05;;;8.43;;
64498;SDS011;51087;55.718;21.122;2023-06-22T08:17:56;17.58;;;6.65;;
64498;SDS011;51087;55.718;21.122;2023-06-22T08:20:22;13.18;;;7.60;;
64498;SDS011;51087;55.718;21.122;2023-06-22T08:22:48;13.85;;;7.80;;
64498;SDS011;51087;55.718;21.122;2023-06-22T08:25:13;11.15;;;6.38;;
64498;SDS011;51087;55.718;21.122;2023-06-22T08:27:39;9.73;;;6.10;;
64498;SDS011;51087;55.718;21.122;2023-06-22T08:30:05;13.40;;;6.38;;
64498;SDS011;51087;55.718;21.122;2023-06-22T08:32:31;11.95;;;6.22;;
64498;SDS011;51087;55.718;21.122;2023-06-22T08:34:57;12.00;;;5.82;;
64498;SDS011;51087;55.718;21.122;2023-06-22T08:37:23;14.05;;;7.68;;
64498;SDS011;51087;55.718;21.122;2023-06-22T08:39:55;12.93;;;6.70;;
64498;SDS011;51087;55.718;21.122;2023-06-22T08:42:21;12.32;;;6.47;;
64498;SDS011;51087;55.718;21.122;2023-06-22T08:44:48;10.27;;;6.85;;
64498;SDS011;51087;55.718;21.122;2023-06-22T08:47:13;14.73;;;7.40;;
64498;SDS011;51087;55.718;21.122;2023-06-22T08:49:39;9.73;;;4.93;;
64498;SDS011;51087;55.718;21.122;2023-06-22T08:52:04;10.77;;;5.78;;
64498;SDS011;51087;55.718;21.122;2023-06-22T08:54:30;19.45;;;6.55;;
64498;SDS011;51087;55.718;21.122;2023-06-22T08:56:58;10.93;;;6.63;;
64498;SDS011;51087;55.718;21.122;2023-06-22T08:59:23;7.57;;;5.25;;
64498;SDS011;51087;55.718;21.122;2023-06-22T09:01:48;17.67;;;6.95;;
64498;SDS011;51087;55.718;21.122;2023-06-22T09:04:14;16.35;;;6.13;;
64498;SDS011;51087;55.718;21.122;2023-06-22T09:06:40;9.90;;;6.05;;
64498;SDS011;51087;55.718;21.122;2023-06-22T09:09:10;11.45;;;6.47;;
64498;SDS011;51087;55.718;21.122;2023-06-22T09:11:37;14.10;;;5.70;;
64498;SDS011;51087;55.718;21.122;2023-06-22T09:14:03;10.20;;;5.82;;
64498;SDS011;51087;55.718;21.122;2023-06-22T09:16:28;13.52;;;6.15;;
64498;SDS011;51087;55.718;21.122;2023-06-22T09:18:54;15.00;;;5.90;;
64498;SDS011;51087;55.718;21.122;2023-06-22T09:21:19;11.35;;;6.32;;
64498;SDS011;51087;55.718;21.122;2023-06-22T09:23:45;14.23;;;6.32;;
64498;SDS011;51087;55.718;21.122;2023-06-22T09:26:15;10.43;;;4.57;;
64498;SDS011;51087;55.718;21.122;2023-06-22T09:28:40;9.82;;;6.00;;
64498;SDS011;51087;55.718;21.122;2023-06-22T09:31:06;12.25;;;6.50;;
64498;SDS011;51087;55.718;21.122;2023-06-22T09:33:32;9.68;;;5.35;;
64498;SDS011;51087;55.718;21.122;2023-06-22T09:35:57;10.27;;;5.18;;
64498;SDS011;51087;55.718;21.122;2023-06-22T09:38:23;9.10;;;4.57;;
64498;SDS011;51087;55.718;21.122;2023-06-22T09:40:48;8.40;;;5.30;;
64498;SDS011;51087;55.718;21.122;2023-06-22T09:43:13;17.45;;;5.03;;
64498;SDS011;51087;55.718;21.122;2023-06-22T09:45:39;7.90;;;4.50;;
64498;SDS011;51087;55.718;21.122;2023-06-22T09:48:05;9.65;;;4.78;;
64498;SDS011;51087;55.718;21.122;2023-06-22T09:50:30;11.02;;;4.18;;
64498;SDS011;51087;55.718;21.122;2023-06-22T09:52:56;8.30;;;4.30;;
64498;SDS011;51087;55.718;21.122;2023-06-22T09:55:21;8.77;;;3.85;;
64498;SDS011;51087;55.718;21.122;2023-06-22T09:57:47;8.90;;;4.07;;
64498;SDS011;51087;55.718;21.122;2023-06-22T10:00:13;19.15;;;3.33;;
64498;SDS011;51087;55.718;21.122;2023-06-22T10:02:43;9.95;;;4.55;;
64498;SDS011;51087;55.718;21.122;2023-06-22T10:05:09;6.65;;;3.25;;
64498;SDS011;51087;55.718;21.122;2023-06-22T10:07:34;6.38;;;2.75;;
64498;SDS011;51087;55.718;21.122;2023-06-22T10:09:59;6.18;;;3.25;;
64498;SDS011;51087;55.718;21.122;2023-06-22T10:12:26;6.55;;;3.40;;
64498;SDS011;51087;55.718;21.122;2023-06-22T10:14:52;7.85;;;3.17;;
64498;SDS011;51087;55.718;21.122;2023-06-22T10:17:18;11.38;;;3.53;;
64498;SDS011;51087;55.718;21.122;2023-06-22T10:19:43;7.30;;;3.40;;
64498;SDS011;51087;55.718;21.122;2023-06-22T10:22:08;9.57;;;3.28;;
64498;SDS011;51087;55.718;21.122;2023-06-22T10:24:34;7.35;;;3.03;;
64498;SDS011;51087;55.718;21.122;2023-06-22T10:26:59;6.55;;;3.10;;
64498;SDS011;51087;55.718;21.122;2023-06-22T10:29:25;8.13;;;3.45;;
64498;SDS011;51087;55.718;21.122;2023-06-22T10:31:50;11.15;;;3.90;;
64498;SDS011;51087;55.718;21.122;2023-06-22T10:34:15;7.20;;;2.60;;
64498;SDS011;51087;55.718;21.122;2023-06-22T10:36:41;8.98;;;3.38;;
64498;SDS011;51087;55.718;21.122;2023-06-22T10:39:06;7.30;;;3.10;;
64498;SDS011;51087;55.718;21.122;2023-06-22T10:41:32;5.63;;;2.50;;
64498;SDS011;51087;55.718;21.122;2023-06-22T10:43:57;9.32;;;3.20;;
64498;SDS011;51087;55.718;21.122;2023-06-22T10:46:26;6.93;;;2.90;;
64498;SDS011;51087;55.718;21.122;2023-06-22T10:48:52;6.93;;;2.83;;
64498;SDS011;51087;55.718;21.122;2023-06-22T10:51:20;9.23;;;2.70;;
64498;SDS011;51087;55.718;21.122;2023-06-22T10:53:45;6.72;;;2.65;;
64498;SDS011;51087;55.718;21.122;2023-06-22T10:56:11;4.72;;;2.30;;
64498;SDS011;51087;55.718;21.122;2023-06-22T10:58:36;9.18;;;2.80;;
64498;SDS011;51087;55.718;21.122;2023-06-22T11:01:01;4.50;;;2.50;;
64498;SDS011;51087;55.718;21.122;2023-06-22T11:03:28;8.20;;;2.90;;
64498;SDS011;51087;55.718;21.122;2023-06-22T11:05:53;7.43;;;2.05;;
64498;SDS011;51087;55.718;21.122;2023-06-22T11:08:20;7.25;;;2.65;;
64498;SDS011;51087;55.718;21.122;2023-06-22T11:10:45;5.57;;;2.40;;
64498;SDS011;51087;55.718;21.122;2023-06-22T11:13:11;4.80;;;2.70;;
64498;SDS011;51087;55.718;21.122;2023-06-22T11:15:36;4.43;;;2.05;;
64498;SDS011;51087;55.718;21.122;2023-06-22T11:18:02;9.40;;;2.85;;
64498;SDS011;51087;55.718;21.122;2023-06-22T11:20:30;6.03;;;2.70;;
64498;SDS011;51087;55.718;21.122;2023-06-22T11:22:55;5.60;;;2.53;;
64498;SDS011;51087;55.718;21.122;2023-06-22T11:25:20;4.45;;;2.40;;
64498;SDS011;51087;55.718;21.122;2023-06-22T11:27:46;4.93;;;2.90;;
64498;SDS011;51087;55.718;21.122;2023-06-22T11:30:13;5.30;;;2.60;;
64498;SDS011;51087;55.718;21.122;2023-06-22T11:32:38;6.78;;;2.60;;
64498;SDS011;51087;55.718;21.122;2023-06-22T11:35:04;7.03;;;2.80;;
64498;SDS011;51087;55.718;21.122;2023-06-22T11:37:29;6.38;;;2.63;;
64498;SDS011;51087;55.718;21.122;2023-06-22T11:39:55;6.65;;;2.78;;
64498;SDS011;51087;55.718;21.122;2023-06-22T11:42:20;8.15;;;2.70;;
64498;SDS011;51087;55.718;21.122;2023-06-22T11:44:45;5.20;;;2.35;;
64498;SDS011;51087;55.718;21.122;2023-06-22T11:47:11;6.57;;;2.85;;
64498;SDS011;51087;55.718;21.122;2023-06-22T11:49:36;7.65;;;2.67;;
64498;SDS011;51087;55.718;21.122;2023-06-22T11:52:02;5.72;;;2.70;;
64498;SDS011;51087;55.718;21.122;2023-06-22T11:54:30;7.28;;;2.70;;
64498;SDS011;51087;55.718;21.122;2023-06-22T11:56:55;7.50;;;2.42;;
64498;SDS011;51087;55.718;21.122;2023-06-22T11:59:21;5.40;;;2.42;;
64498;SDS011;51087;55.718;21.122;2023-06-22T12:01:47;5.38;;;2.63;;
64498;SDS011;51087;55.718;21.122;2023-06-22T12:04:12;4.47;;;2.67;;
64498;SDS011;51087;55.718;21.122;2023-06-22T12:06:39;6.43;;;2.10;;
64498;SDS011;51087;55.718;21.122;2023-06-22T12:09:07;9.50;;;3.53;;
64498;SDS011;51087;55.718;21.122;2023-06-22T12:11:32;4.80;;;1.92;;
64498;SDS011;51087;55.718;21.122;2023-06-22T12:13:58;4.75;;;2.33;;
64498;SDS011;51087;55.718;21.122;2023-06-22T12:16:26;3.70;;;2.55;;
64498;SDS011;51087;55.718;21.122;2023-06-22T12:18:52;6.43;;;2.50;;
64498;SDS011;51087;55.718;21.122;2023-06-22T12:21:18;12.52;;;2.78;;
64498;SDS011;51087;55.718;21.122;2023-06-22T12:23:44;5.97;;;2.47;;
64498;SDS011;51087;55.718;21.122;2023-06-22T12:26:09;5.45;;;2.40;;
64498;SDS011;51087;55.718;21.122;2023-06-22T12:28:35;8.13;;;2.30;;
64498;SDS011;51087;55.718;21.122;2023-06-22T12:31:00;8.15;;;2.42;;
64498;SDS011;51087;55.718;21.122;2023-06-22T12:33:25;4.82;;;1.90;;
64498;SDS011;51087;55.718;21.122;2023-06-22T12:35:51;6.78;;;1.67;;
64498;SDS011;51087;55.718;21.122;2023-06-22T12:38:16;7.57;;;1.98;;
64498;SDS011;51087;55.718;21.122;2023-06-22T12:40:41;5.13;;;2.28;;
64498;SDS011;51087;55.718;21.122;2023-06-22T12:43:07;4.38;;;2.10;;
64498;SDS011;51087;55.718;21.122;2023-06-22T12:45:32;9.30;;;2.70;;
64498;SDS011;51087;55.718;21.122;2023-06-22T12:47:59;4.70;;;2.33;;
64498;SDS011;51087;55.718;21.122;2023-06-22T12:50:25;4.15;;;2.35;;
64498;SDS011;51087;55.718;21.122;2023-06-22T12:52:50;4.80;;;1.83;;
64498;SDS011;51087;55.718;21.122;2023-06-22T12:55:16;7.50;;;2.50;;
64498;SDS011;51087;55.718;21.122;2023-06-22T12:57:41;8.15;;;2.70;;
64498;SDS011;51087;55.718;21.122;2023-06-22T13:00:07;6.32;;;2.25;;
64498;SDS011;51087;55.718;21.122;2023-06-22T13:02:34;3.50;;;2.10;;
64498;SDS011;51087;55.718;21.122;2023-06-22T13:05:01;4.30;;;2.38;;
64498;SDS011;51087;55.718;21.122;2023-06-22T13:07:26;6.97;;;2.95;;
64498;SDS011;51087;55.718;21.122;2023-06-22T13:09:52;5.95;;;2.13;;
64498;SDS011;51087;55.718;21.122;2023-06-22T13:12:17;4.07;;;2.20;;
64498;SDS011;51087;55.718;21.122;2023-06-22T13:14:44;10.27;;;2.75;;
64498;SDS011;51087;55.718;21.122;2023-06-22T13:17:11;7.93;;;2.55;;
64498;SDS011;51087;55.718;21.122;2023-06-22T13:19:37;5.20;;;2.53;;
64498;SDS011;51087;55.718;21.122;2023-06-22T13:22:03;7.95;;;2.40;;
64498;SDS011;51087;55.718;21.122;2023-06-22T13:24:29;4.82;;;2.53;;
64498;SDS011;51087;55.718;21.122;2023-06-22T13:26:54;4.97;;;2.38;;
64498;SDS011;51087;55.718;21.122;2023-06-22T13:29:20;7.22;;;2.45;;
64498;SDS011;51087;55.718;21.122;2023-06-22T13:31:45;11.48;;;2.30;;
64498;SDS011;51087;55.718;21.122;2023-06-22T13:34:11;9.65;;;3.00;;
64498;SDS011;51087;55.718;21.122;2023-06-22T13:36:37;7.18;;;2.65;;
64498;SDS011;51087;55.718;21.122;2023-06-22T13:39:02;4.78;;;2.53;;
64498;SDS011;51087;55.718;21.122;2023-06-22T13:41:28;7.32;;;2.45;;
64498;SDS011;51087;55.718;21.122;2023-06-22T13:43:54;6.95;;;2.72;;
64498;SDS011;51087;55.718;21.122;2023-06-22T13:46:19;9.18;;;2.80;;
64498;SDS011;51087;55.718;21.122;2023-06-22T13:48:45;4.97;;;2.30;;
64498;SDS011;51087;55.718;21.122;2023-06-22T13:51:10;8.82;;;3.22;;
64498;SDS011;51087;55.718;21.122;2023-06-22T13:53:35;5.35;;;2.55;;
64498;SDS011;51087;55.718;21.122;2023-06-22T13:56:01;6.55;;;2.85;;
64498;SDS011;51087;55.718;21.122;2023-06-22T13:58:26;5.43;;;2.80;;
64498;SDS011;51087;55.718;21.122;2023-06-22T14:00:52;5.80;;;2.90;;
64498;SDS011;51087;55.718;21.122;2023-06-22T14:03:17;8.43;;;2.72;;
64498;SDS011;51087;55.718;21.122;2023-06-22T14:05:43;9.23;;;2.97;;
64498;SDS011;51087;55.718;21.122;2023-06-22T14:08:08;7.47;;;2.80;;
64498;SDS011;51087;55.718;21.122;2023-06-22T14:10:34;5.03;;;2.30;;
64498;SDS011;51087;55.718;21.122;2023-06-22T14:13:00;6.45;;;3.17;;
64498;SDS011;51087;55.718;21.122;2023-06-22T14:15:25;6.82;;;2.95;;
64498;SDS011;51087;55.718;21.122;2023-06-22T14:17:51;6.20;;;2.60;;
64498;SDS011;51087;55.718;21.122;2023-06-22T14:20:17;6.22;;;2.63;;
64498;SDS011;51087;55.718;21.122;2023-06-22T14:22:43;11.25;;;3.30;;
64498;SDS011;51087;55.718;21.122;2023-06-22T14:25:08;6.03;;;2.70;;
64498;SDS011;51087;55.718;21.122;2023-06-22T14:27:34;5.10;;;2.30;;
64498;SDS011;51087;55.718;21.122;2023-06-22T14:29:59;5.72;;;2.97;;